Time;durP1;ratioP1;P1;durP2;ratioP2;P2;SDS_P1;SDS_P2;PMS_P1;PMS_P2;Temp;Humidity;BMP_temperature;BMP_pressure;BME280_temperature;BME280_humidity;BME280_pressure;Samples;Min_cycle;Max_cycle;Signal;HPM_P1;HPM_P2
2022/05/03 11:06:34;;;;;;;16.03;14.90;;;21.10;48.60;;;;;;5022788;28;20600;-69
2022/05/03 11:09:15;;;;;;;16.60;15.60;;;24.70;43.80;;;;;;5022650;28;20928;-69
2022/05/03 11:11:53;;;;;;;16.50;15.40;;;25.00;43.90;;;;;;5020895;28;20448;-69
2022/05/03 11:14:48;;;;;;;16.13;15.23;;;24.90;42.80;;;;;;5022119;28;20490;-69
2022/05/03 11:17:15;;;;;;;17.10;16.10;;;25.50;41.50;;;;;;5020688;28;20464;-69
2022/05/03 11:19:58;;;;;;;15.40;14.30;;;26.30;40.90;;;;;;5020100;28;20815;-69
2022/05/03 11:22:29;;;;;;;15.77;14.70;;;26.30;41.50;;;;;;5021077;28;20814;-69
2022/05/03 11:24:58;;;;;;;14.90;14.20;;;25.90;42.10;;;;;;5019473;28;21554;-69
2022/05/03 11:27:26;;;;;;;14.70;13.90;;;25.80;40.60;;;;;;5021049;28;20476;-68
2022/05/03 11:29:58;;;;;;;15.40;14.00;;;25.70;43.50;;;;;;5021559;28;20962;-69
2022/05/03 11:32:30;;;;;;;14.63;13.47;;;25.30;41.70;;;;;;5021209;28;20982;-69
2022/05/03 11:35:05;;;;;;;14.57;13.77;;;24.60;42.80;;;;;;5021122;28;20501;-69
2022/05/03 11:37:33;;;;;;;14.20;13.50;;;23.90;42.10;;;;;;5020827;28;20469;-69
2022/05/03 11:40:08;;;;;;;13.67;13.00;;;24.50;42.80;;;;;;5021280;28;20464;-69
2022/05/03 11:42:40;;;;;;;15.80;15.00;;;25.00;43.00;;;;;;5021436;28;20462;-69
2022/05/03 11:45:08;;;;;;;16.53;15.63;;;26.20;41.90;;;;;;5022875;28;21028;-69
2022/05/03 11:47:41;;;;;;;16.83;15.93;;;26.80;40.70;;;;;;5022208;28;20471;-69
2022/05/03 11:50:10;;;;;;;16.23;15.17;;;26.90;39.50;;;;;;5021529;28;20455;-70
2022/05/03 11:58:08;;;;;;;15.77;14.97;;;27.50;38.70;;;;;;5019568;28;20561;-68
2022/05/03 12:00:47;;;;;;;16.43;15.63;;;27.10;38.80;;;;;;5019294;28;20471;-68
2022/05/03 12:03:14;;;;;;;16.17;15.37;;;26.70;40.50;;;;;;5020076;28;20586;-69
2022/05/03 12:05:41;;;;;;;16.17;15.27;;;26.70;41.00;;;;;;5013149;28;20852;-68
2022/05/03 12:08:20;;;;;;;15.70;14.90;;;27.20;38.40;;;;;;5006468;28;20459;-69
2022/05/03 12:10:49;;;;;;;16.00;15.20;;;26.60;38.80;;;;;;5006759;28;20468;-68
2022/05/03 12:13:17;;;;;;;15.33;14.50;;;26.00;39.40;;;;;;5006418;28;20551;-68
2022/05/03 12:15:46;;;;;;;16.43;15.53;;;26.40;39.10;;;;;;5004683;28;20491;-68
2022/05/03 12:18:16;;;;;;;16.40;15.30;;;25.60;38.90;;;;;;5007124;28;20540;-68
2022/05/03 12:20:46;;;;;;;15.67;14.80;;;24.70;40.70;;;;;;5005532;28;20468;-69
2022/05/03 12:23:19;;;;;;;15.27;14.57;;;25.40;42.20;;;;;;5006266;28;20723;-68
2022/05/03 12:25:48;;;;;;;16.10;15.00;;;24.70;41.40;;;;;;5007049;28;20472;-68
2022/05/03 12:28:15;;;;;;;16.07;14.97;;;24.00;40.60;;;;;;5007754;28;20496;-68
2022/05/03 12:30:43;;;;;;;16.80;15.37;;;23.50;42.20;;;;;;5007624;28;20471;-68
2022/05/03 12:33:13;;;;;;;16.20;15.23;;;23.20;42.30;;;;;;5007161;28;20487;-68
2022/05/03 12:35:43;;;;;;;15.70;14.80;;;23.50;41.80;;;;;;5006877;28;21040;-68
2022/05/03 12:38:12;;;;;;;15.33;14.53;;;23.60;42.00;;;;;;5007226;28;20607;-68
2022/05/03 12:40:48;;;;;;;14.90;14.20;;;24.50;40.90;;;;;;5006816;28;20475;-68
2022/05/03 12:43:17;;;;;;;15.93;14.90;;;25.60;40.10;;;;;;5007561;28;20546;-68
2022/05/03 12:45:59;;;;;;;15.27;14.37;;;25.30;41.20;;;;;;5006724;28;20488;-68
2022/05/03 12:48:26;;;;;;;15.97;14.97;;;25.20;41.60;;;;;;5005079;28;20460;-68
2022/05/03 12:50:53;;;;;;;16.00;15.20;;;26.00;40.30;;;;;;5006352;28;20469;-69
2022/05/03 12:53:25;;;;;;;15.67;14.73;;;27.20;38.80;;;;;;5006074;28;20477;-69
2022/05/03 12:55:55;;;;;;;16.50;15.50;;;27.20;38.90;;;;;;5006466;28;20511;-68
2022/05/03 12:58:36;;;;;;;17.73;16.33;;;26.70;39.50;;;;;;5007777;28;20475;-69
2022/05/03 13:01:03;;;;;;;16.10;15.30;;;26.60;38.40;;;;;;5006137;28;22673;-68
2022/05/03 13:03:31;;;;;;;15.37;14.57;;;25.50;38.60;;;;;;5006550;28;21042;-68
2022/05/03 13:05:58;;;;;;;15.80;14.60;;;26.60;38.40;;;;;;5007465;28;21205;-69
2022/05/03 13:08:25;;;;;;;15.47;14.57;;;26.40;37.60;;;;;;5006691;28;21172;-69
2022/05/03 13:10:53;;;;;;;16.57;15.47;;;26.70;38.00;;;;;;5005900;28;21259;-69
2022/05/03 13:13:20;;;;;;;16.27;15.37;;;27.20;37.70;;;;;;5005565;28;20461;-69
2022/05/03 13:15:47;;;;;;;16.33;14.97;;;27.10;37.70;;;;;;5006997;28;20495;-68
2022/05/03 13:18:14;;;;;;;14.77;14.07;;;27.20;38.00;;;;;;5004889;28;20712;-68
2022/05/03 13:20:43;;;;;;;16.00;14.97;;;27.40;37.60;;;;;;5006310;28;20844;-68
2022/05/03 13:23:10;;;;;;;16.70;15.13;;;26.70;37.60;;;;;;5004817;28;20935;-69
2022/05/03 13:25:37;;;;;;;17.00;15.57;;;27.40;37.20;;;;;;5006453;28;20468;-69
2022/05/03 13:28:06;;;;;;;16.10;15.30;;;27.30;39.00;;;;;;5006154;28;20483;-69
2022/05/03 13:30:33;;;;;;;19.57;15.40;;;27.60;38.30;;;;;;5014734;28;20555;-68
2022/05/03 13:33:00;;;;;;;18.37;15.50;;;26.50;38.50;;;;;;5025102;28;20469;-68
2022/05/03 13:40:54;;;;;;;15.40;14.57;;;25.80;39.60;;;;;;5005215;28;22943;-69
2022/05/03 13:43:23;;;;;;;15.53;14.63;;;26.70;39.20;;;;;;5006029;28;20833;-68
2022/05/03 13:45:51;;;;;;;14.70;13.93;;;26.80;39.20;;;;;;5006250;28;22496;-69
2022/05/03 13:48:18;;;;;;;15.83;14.83;;;26.40;40.00;;;;;;5005665;28;20465;-68
2022/05/03 13:50:45;;;;;;;14.97;14.10;;;25.60;41.20;;;;;;5005499;28;20474;-68
2022/05/03 13:53:13;;;;;;;14.70;13.90;;;25.80;39.60;;;;;;5006158;28;20539;-69
2022/05/03 13:55:41;;;;;;;15.43;14.50;;;26.10;39.90;;;;;;5004766;28;21232;-68
2022/05/03 13:58:08;;;;;;;15.13;14.33;;;27.10;38.60;;;;;;5028470;28;20475;-68
2022/05/03 14:00:37;;;;;;;14.70;13.90;;;27.70;38.90;;;;;;5030555;28;20578;-68
2022/05/03 14:03:04;;;;;;;14.80;14.10;;;27.60;38.90;;;;;;5035599;28;20482;-68
2022/05/03 14:05:31;;;;;;;14.23;13.43;;;26.40;40.50;;;;;;5013550;28;20520;-69
2022/05/03 14:07:58;;;;;;;16.37;15.37;;;26.10;41.70;;;;;;5003406;28;21598;-68
2022/05/03 14:10:24;;;;;;;15.50;14.60;;;25.30;41.60;;;;;;5003314;28;20467;-69
2022/05/03 14:12:52;;;;;;;14.93;14.13;;;25.40;43.00;;;;;;5004383;28;20814;-69
2022/05/03 14:15:19;;;;;;;15.17;14.40;;;26.50;41.20;;;;;;5004423;28;20943;-69
2022/05/03 14:17:47;;;;;;;14.87;14.03;;;27.00;39.00;;;;;;5005511;28;20475;-68
2022/05/03 14:20:14;;;;;;;15.43;14.37;;;26.20;39.20;;;;;;5003606;28;20473;-68
2022/05/03 14:22:41;;;;;;;14.70;13.90;;;25.40;39.30;;;;;;5003067;28;20544;-69
2022/05/03 14:25:10;;;;;;;14.57;13.67;;;25.70;40.40;;;;;;5003564;28;20527;-69
2022/05/03 14:27:38;;;;;;;15.20;14.30;;;25.30;40.20;;;;;;5003914;28;21842;-71
2022/05/03 14:30:06;;;;;;;15.23;14.20;;;24.80;40.90;;;;;;5003864;28;20471;-68
2022/05/03 14:32:33;;;;;;;14.00;13.30;;;25.10;40.70;;;;;;5003689;28;21064;-68
2022/05/03 14:35:02;;;;;;;14.90;14.00;;;25.80;40.70;;;;;;5003561;28;20865;-68
2022/05/03 14:37:29;;;;;;;15.37;14.37;;;25.30;40.40;;;;;;5003830;28;20469;-69
2022/05/03 14:39:56;;;;;;;14.07;13.37;;;24.90;40.90;;;;;;5003629;28;20580;-69
2022/05/03 14:42:24;;;;;;;15.20;14.07;;;24.80;42.80;;;;;;5003283;28;20479;-68
2022/05/03 14:44:51;;;;;;;15.33;14.43;;;24.30;42.00;;;;;;5003216;28;20480;-68
2022/05/03 14:47:18;;;;;;;14.30;13.60;;;24.00;42.70;;;;;;5003892;28;20463;-69
2022/05/03 14:49:45;;;;;;;14.47;13.43;;;24.30;43.10;;;;;;5004441;28;20468;-69
2022/05/03 14:52:14;;;;;;;13.97;13.33;;;24.40;42.80;;;;;;5002682;28;20457;-69
2022/05/03 14:54:42;;;;;;;15.03;14.30;;;24.70;43.50;;;;;;5003914;28;21026;-69
2022/05/03 15:02:56;;;;;;;14.93;14.23;;;24.60;43.30;;;;;;5002277;28;20554;-69
2022/05/03 15:05:25;;;;;;;16.30;15.40;;;24.60;44.50;;;;;;4986525;28;20614;-69
2022/05/03 15:07:55;;;;;;;15.00;14.30;;;24.60;41.90;;;;;;5001524;28;20468;-69
2022/05/03 15:10:22;;;;;;;14.90;13.97;;;24.40;42.60;;;;;;5001479;28;20474;-70
2022/05/03 15:12:49;;;;;;;15.20;14.10;;;24.90;42.80;;;;;;5000230;28;20472;-71
2022/05/03 15:15:18;;;;;;;14.80;14.10;;;24.60;42.60;;;;;;5001644;28;20575;-70
2022/05/03 15:17:46;;;;;;;14.40;13.40;;;24.70;43.00;;;;;;5001694;28;21076;-70
2022/05/03 15:20:14;;;;;;;14.97;14.17;;;25.00;43.10;;;;;;5000597;28;21231;-70
2022/05/03 15:25:24;;;;;;;15.50;14.30;;;25.60;41.20;;;;;;5001133;28;20472;-69
2022/05/03 15:27:50;;;;;;;13.43;12.63;;;26.20;41.90;;;;;;5025306;28;20814;-69
2022/05/03 15:30:17;;;;;;;14.90;14.20;;;25.90;41.30;;;;;;5018981;28;20908;-70
2022/05/03 15:32:44;;;;;;;15.40;14.20;;;25.20;41.70;;;;;;5000231;28;21085;-69
2022/05/03 15:35:11;;;;;;;14.83;14.00;;;24.30;41.30;;;;;;5001820;28;20982;-70
2022/05/03 15:37:38;;;;;;;13.90;13.10;;;24.20;42.10;;;;;;5001362;28;20477;-70
2022/05/03 15:40:08;;;;;;;13.67;12.97;;;24.60;42.40;;;;;;5001015;28;20472;-70
2022/05/03 15:42:37;;;;;;;13.63;12.93;;;24.80;42.80;;;;;;5004477;28;20837;-69
2022/05/03 15:45:06;;;;;;;14.60;13.90;;;24.10;42.90;;;;;;5004288;28;20499;-69
2022/05/03 15:47:35;;;;;;;13.20;12.50;;;23.90;43.00;;;;;;5004774;28;20460;-69
2022/05/03 15:50:04;;;;;;;13.60;13.00;;;23.80;42.60;;;;;;5005014;28;20907;-69
2022/05/03 15:52:33;;;;;;;13.40;12.70;;;23.90;43.20;;;;;;5004863;28;21032;-70
2022/05/03 15:55:00;;;;;;;15.43;14.40;;;24.10;43.00;;;;;;5003860;28;20491;-69
2022/05/03 15:57:27;;;;;;;15.00;14.30;;;24.30;43.00;;;;;;5004528;28;20479;-69
2022/05/03 15:59:55;;;;;;;14.37;13.67;;;24.10;43.10;;;;;;5004504;28;20471;-70
2022/05/03 16:02:22;;;;;;;14.40;13.70;;;23.80;44.80;;;;;;5005001;28;20730;-69
2022/05/03 16:04:50;;;;;;;14.37;13.67;;;22.50;44.90;;;;;;5003242;28;20483;-69
2022/05/03 16:07:18;;;;;;;14.30;13.50;;;22.50;46.80;;;;;;5005894;28;20894;-70
2022/05/03 16:09:45;;;;;;;14.33;13.53;;;22.70;46.10;;;;;;5005550;28;20614;-69
2022/05/03 16:12:12;;;;;;;14.17;13.47;;;23.20;45.90;;;;;;5005736;28;20471;-69
2022/05/03 16:14:39;;;;;;;14.50;13.70;;;23.30;44.30;;;;;;5005119;28;20479;-69
2022/05/03 16:17:08;;;;;;;13.50;12.80;;;23.20;44.80;;;;;;5003601;28;20461;-69
2022/05/03 16:19:36;;;;;;;14.40;13.60;;;23.30;44.70;;;;;;5004748;28;20457;-69
2022/05/03 16:22:03;;;;;;;13.57;12.97;;;23.60;44.60;;;;;;5005312;28;20476;-69
2022/05/03 16:24:30;;;;;;;12.93;12.43;;;24.10;42.90;;;;;;5005004;28;20536;-69
2022/05/03 16:26:57;;;;;;;15.73;14.43;;;24.40;42.30;;;;;;5004497;28;20634;-69
2022/05/03 16:29:24;;;;;;;15.23;14.53;;;24.50;42.80;;;;;;5005322;28;20977;-69
2022/05/03 16:31:51;;;;;;;14.93;14.20;;;24.30;42.90;;;;;;5004338;28;21743;-69
2022/05/03 16:34:19;;;;;;;15.43;14.53;;;24.10;43.60;;;;;;5003913;28;20461;-69
2022/05/03 16:42:17;;;;;;;14.83;14.13;;;23.60;44.90;;;;;;5004208;28;20496;-69
2022/05/03 16:44:46;;;;;;;15.23;14.43;;;23.50;44.50;;;;;;5004240;28;20531;-69
2022/05/03 16:47:14;;;;;;;14.70;13.80;;;23.10;45.50;;;;;;5004991;28;20506;-69
2022/05/03 16:49:43;;;;;;;14.70;13.80;;;23.20;45.70;;;;;;5003227;28;20922;-69
2022/05/03 16:52:12;;;;;;;14.57;13.87;;;23.50;46.80;;;;;;5003119;28;20472;-69
2022/05/03 16:54:39;;;;;;;14.80;14.10;;;23.00;45.10;;;;;;5004742;28;20542;-70
2022/05/03 16:57:06;;;;;;;15.00;14.30;;;22.70;45.90;;;;;;5003166;28;20463;-69
2022/05/03 16:59:34;;;;;;;14.80;14.10;;;22.50;46.30;;;;;;5005338;28;20464;-69
2022/05/03 17:02:01;;;;;;;15.07;14.10;;;22.60;45.80;;;;;;5003849;28;20464;-69
2022/05/03 17:04:29;;;;;;;15.10;14.40;;;22.60;45.10;;;;;;5019401;28;20493;-69
2022/05/03 17:06:57;;;;;;;14.87;14.17;;;22.40;46.10;;;;;;5023333;28;20897;-69
2022/05/03 17:09:24;;;;;;;15.17;14.40;;;22.10;46.80;;;;;;5005046;28;21248;-69
2022/05/03 17:11:52;;;;;;;15.33;14.53;;;22.20;46.70;;;;;;5003165;28;20937;-68
2022/05/03 17:14:20;;;;;;;15.20;14.40;;;22.00;47.00;;;;;;5004142;28;20453;-69
2022/05/03 17:16:49;;;;;;;14.53;13.90;;;22.00;47.10;;;;;;5017621;28;20464;-69
2022/05/03 17:19:17;;;;;;;15.47;14.67;;;22.30;47.60;;;;;;5029982;28;20463;-69
2022/05/03 17:21:44;;;;;;;15.37;14.57;;;22.10;47.40;;;;;;5004307;28;21101;-70
2022/05/03 17:24:13;;;;;;;15.30;14.57;;;21.90;48.70;;;;;;5004739;28;20475;-69
2022/05/03 17:26:40;;;;;;;16.70;15.47;;;21.60;48.70;;;;;;5001844;28;20611;-69
2022/05/03 17:29:07;;;;;;;14.57;13.80;;;21.50;48.80;;;;;;5008383;28;20465;-69
2022/05/03 17:31:35;;;;;;;14.73;14.03;;;21.30;49.20;;;;;;5026454;28;20822;-69
2022/05/03 17:34:04;;;;;;;14.70;14.00;;;21.30;49.70;;;;;;5016366;28;20469;-70
2022/05/03 17:36:31;;;;;;;14.60;13.90;;;21.30;50.40;;;;;;5003889;28;20468;-70
2022/05/03 17:38:59;;;;;;;15.43;14.53;;;21.10;51.30;;;;;;5003486;28;20472;-69
2022/05/03 17:41:30;;;;;;;15.40;14.60;;;20.90;51.50;;;;;;5004101;28;20457;-69
2022/05/03 17:43:57;;;;;;;15.87;15.00;;;20.40;51.30;;;;;;5002725;28;20556;-69
2022/05/03 17:46:25;;;;;;;16.57;15.57;;;20.10;52.80;;;;;;5003368;28;20494;-69
2022/05/03 17:48:52;;;;;;;15.70;14.73;;;19.70;53.70;;;;;;5002784;28;20469;-69
2022/05/03 17:51:20;;;;;;;16.43;15.53;;;19.90;54.60;;;;;;5002335;28;20459;-69
2022/05/03 17:53:57;;;;;;;15.70;14.90;;;20.00;54.60;;;;;;5001906;28;20507;-69
2022/05/03 17:56:25;;;;;;;16.40;15.50;;;19.90;55.00;;;;;;5003556;28;21685;-69
2022/05/03 17:58:55;;;;;;;16.80;15.80;;;20.00;54.90;;;;;;5002323;28;20757;-70
2022/05/03 18:01:23;;;;;;;16.53;15.50;;;20.20;55.40;;;;;;5002866;28;20475;-68
2022/05/03 18:03:51;;;;;;;16.27;15.30;;;20.10;55.70;;;;;;5002138;28;20476;-69
2022/05/03 18:06:21;;;;;;;16.80;15.57;;;20.10;55.80;;;;;;5002775;28;20489;-69
2022/05/03 18:08:48;;;;;;;16.93;15.93;;;20.00;56.30;;;;;;5003742;28;20970;-69
2022/05/03 18:11:16;;;;;;;17.67;16.57;;;19.60;56.80;;;;;;5003515;28;20472;-69
2022/05/03 18:13:44;;;;;;;17.13;16.10;;;19.50;57.10;;;;;;5003170;28;21047;-69
2022/05/03 18:16:15;;;;;;;17.93;16.70;;;19.30;57.80;;;;;;5002558;28;20465;-68
2022/05/03 18:18:44;;;;;;;18.60;17.30;;;19.00;58.50;;;;;;5026398;28;21160;-68
2022/05/03 18:21:12;;;;;;;18.70;17.20;;;18.70;59.80;;;;;;5026453;28;20706;-68
2022/05/03 18:23:40;;;;;;;20.43;18.83;;;18.40;61.40;;;;;;5012087;28;20471;-70
2022/05/03 18:26:07;;;;;;;20.23;18.73;;;17.90;64.20;;;;;;5003308;28;20492;-70
2022/05/03 18:28:36;;;;;;;21.17;19.40;;;17.60;66.80;;;;;;5002839;28;20476;-68
2022/05/03 18:31:03;;;;;;;24.10;21.90;;;17.20;70.20;;;;;;5001243;28;20465;-69
2022/05/03 18:33:31;;;;;;;23.10;21.13;;;16.80;72.70;;;;;;5001781;28;20507;-68
2022/05/03 18:35:58;;;;;;;24.93;22.23;;;16.70;75.60;;;;;;5003295;28;20837;-69
2022/05/03 18:38:26;;;;;;;23.03;20.97;;;16.50;78.10;;;;;;5001899;28;20966;-68
2022/05/03 18:40:53;;;;;;;24.57;22.43;;;16.50;80.90;;;;;;5003104;28;20465;-68
2022/05/03 18:43:21;;;;;;;24.80;22.47;;;16.30;83.60;;;;;;5002385;28;21170;-68
2022/05/03 18:45:49;;;;;;;25.07;22.50;;;16.10;87.80;;;;;;5002559;28;21027;-68
2022/05/03 18:48:16;;;;;;;25.97;23.43;;;15.90;90.80;;;;;;5002935;28;20852;-67
2022/05/03 18:50:44;;;;;;;27.07;24.00;;;15.80;92.80;;;;;;5005270;28;20464;-67
2022/05/03 18:53:11;;;;;;;25.90;23.17;;;15.60;95.40;;;;;;5022722;28;20474;-67
2022/05/03 18:55:44;;;;;;;28.60;25.80;;;15.40;98.40;;;;;;5001910;28;20484;-68
2022/05/03 18:58:13;;;;;;;27.10;24.40;;;15.30;99.90;;;;;;5002603;28;20465;-69
2022/05/03 19:00:41;;;;;;;27.73;24.80;;;15.20;99.90;;;;;;5003122;28;20476;-68
2022/05/03 19:03:08;;;;;;;30.43;24.83;;;15.10;99.90;;;;;;5002259;28;21405;-69
2022/05/03 19:05:35;;;;;;;28.93;25.50;;;15.00;99.90;;;;;;5003422;28;20802;-68
2022/05/03 19:08:04;;;;;;;26.10;23.50;;;14.90;99.90;;;;;;5003663;28;20472;-68
2022/05/03 19:10:31;;;;;;;28.43;25.47;;;14.80;99.90;;;;;;5002972;28;20697;-69
2022/05/03 19:12:58;;;;;;;29.87;25.37;;;14.70;99.90;;;;;;5002511;28;20838;-68
2022/05/03 19:15:26;;;;;;;31.20;24.77;;;14.60;99.90;;;;;;5003085;28;20673;-68
2022/05/03 19:17:53;;;;;;;27.63;24.83;;;14.60;99.90;;;;;;5008082;28;21107;-68
2022/05/03 19:20:21;;;;;;;27.07;24.13;;;14.40;99.90;;;;;;5008990;28;21124;-68
2022/05/03 19:22:49;;;;;;;26.93;24.23;;;14.40;99.90;;;;;;5035128;28;20463;-68
2022/05/03 19:30:48;;;;;;;26.90;24.10;;;14.20;99.90;;;;;;5007733;28;20463;-68
2022/05/03 19:33:17;;;;;;;29.90;23.77;;;14.10;99.90;;;;;;5006970;28;20471;-68
2022/05/03 19:35:46;;;;;;;30.53;22.80;;;14.00;99.90;;;;;;5007935;28;20460;-68
2022/05/03 19:38:14;;;;;;;28.93;21.23;;;13.90;99.90;;;;;;5007436;28;20461;-68
2022/05/03 19:40:45;;;;;;;29.67;22.80;;;13.80;99.90;;;;;;5007771;28;20475;-68
2022/05/03 19:43:14;;;;;;;27.43;23.07;;;13.80;99.90;;;;;;5006575;28;20460;-68
2022/05/03 19:45:41;;;;;;;28.70;23.50;;;13.70;99.90;;;;;;5007457;28;20574;-68
2022/05/03 19:48:09;;;;;;;24.50;21.87;;;13.70;99.90;;;;;;5006430;28;20642;-68
2022/05/03 19:50:38;;;;;;;24.57;21.80;;;13.60;99.90;;;;;;5006870;28;20475;-68
2022/05/03 19:53:07;;;;;;;23.63;21.13;;;13.60;99.90;;;;;;5006762;28;20479;-69
2022/05/03 19:55:36;;;;;;;29.90;23.50;;;13.60;99.90;;;;;;5006659;28;20979;-68
2022/05/03 19:58:06;;;;;;;26.63;22.63;;;13.50;99.90;;;;;;5007115;28;20475;-68
2022/05/03 20:00:33;;;;;;;30.07;22.13;;;13.40;99.90;;;;;;5006382;28;20963;-68
2022/05/03 20:03:01;;;;;;;30.57;22.10;;;13.30;99.90;;;;;;5007152;28;20471;-68
2022/05/03 20:05:29;;;;;;;28.77;21.80;;;13.20;99.90;;;;;;5006231;28;20962;-68
2022/05/03 20:07:56;;;;;;;32.50;22.83;;;13.10;99.90;;;;;;5006829;28;21129;-68
2022/05/03 20:10:25;;;;;;;31.33;21.60;;;13.00;99.90;;;;;;5006865;28;20452;-68
2022/05/03 20:12:52;;;;;;;32.30;23.13;;;13.00;99.90;;;;;;5006368;28;20480;-68
2022/05/03 20:15:21;;;;;;;33.67;22.60;;;12.90;99.90;;;;;;5006271;28;20471;-68
2022/05/03 20:17:49;;;;;;;29.07;20.43;;;12.80;99.90;;;;;;5006808;28;20469;-67
2022/05/03 20:20:17;;;;;;;30.23;21.17;;;12.70;99.90;;;;;;5007459;28;20473;-68
2022/05/03 20:22:44;;;;;;;31.33;22.80;;;12.70;99.90;;;;;;5009757;28;20473;-68
2022/05/03 20:25:13;;;;;;;27.40;22.20;;;12.60;99.90;;;;;;5030786;28;20491;-68
2022/05/03 20:27:42;;;;;;;31.43;20.27;;;12.60;99.90;;;;;;5034056;28;20503;-68
2022/05/03 20:30:10;;;;;;;29.13;21.10;;;12.60;99.90;;;;;;5033720;28;20468;-67
2022/05/03 20:32:39;;;;;;;24.90;20.30;;;12.50;99.90;;;;;;5015203;28;21056;-68
2022/05/03 20:35:08;;;;;;;29.47;21.07;;;12.50;99.90;;;;;;5006366;28;20670;-67
2022/05/03 20:37:35;;;;;;;34.43;21.80;;;12.40;99.90;;;;;;5006981;28;20477;-68
2022/05/03 20:40:02;;;;;;;30.40;20.97;;;12.30;99.90;;;;;;5006352;28;21013;-68
2022/05/03 20:42:29;;;;;;;28.80;20.10;;;12.30;99.90;;;;;;5006112;28;20474;-69
2022/05/03 20:44:56;;;;;;;31.50;21.60;;;12.30;99.90;;;;;;5005502;28;21002;-68
2022/05/03 20:50:09;;;;;;;30.20;21.70;;;12.20;99.90;;;;;;5007932;28;20491;-68
2022/05/03 20:52:36;;;;;;;32.10;21.00;;;12.10;99.90;;;;;;5008928;28;20951;-68
2022/05/03 20:55:06;;;;;;;29.73;21.03;;;12.10;99.90;;;;;;5008525;28;20507;-67
2022/05/03 20:57:33;;;;;;;32.00;21.97;;;12.00;99.90;;;;;;5007712;28;21071;-67
2022/05/03 21:00:01;;;;;;;30.10;22.33;;;11.90;99.90;;;;;;5007361;28;20958;-68
2022/05/03 21:02:30;;;;;;;34.90;22.73;;;11.90;99.90;;;;;;5007329;28;20464;-68
2022/05/03 21:04:57;;;;;;;28.70;22.03;;;11.90;99.90;;;;;;5007244;28;20942;-68
2022/05/03 21:07:25;;;;;;;32.13;21.97;;;11.80;99.90;;;;;;5007572;28;20923;-67
2022/05/03 21:09:52;;;;;;;27.57;20.90;;;11.70;99.90;;;;;;5006395;28;20579;-68
2022/05/03 21:12:19;;;;;;;27.87;21.03;;;11.60;99.90;;;;;;5006758;28;20890;-68
2022/05/03 21:14:46;;;;;;;29.27;21.13;;;11.60;99.90;;;;;;5008056;28;20472;-67
2022/05/03 21:17:13;;;;;;;30.27;22.83;;;11.60;99.90;;;;;;5008907;28;20471;-68
2022/05/03 21:19:40;;;;;;;29.57;22.60;;;11.60;99.90;;;;;;5008208;28;21051;-68
2022/05/03 21:22:07;;;;;;;34.20;22.40;;;11.60;99.90;;;;;;5008007;28;20467;-68
2022/05/03 21:24:36;;;;;;;29.33;22.00;;;11.50;99.90;;;;;;5007657;28;20777;-68
2022/05/03 21:27:18;;;;;;;23.83;19.80;;;11.40;99.90;;;;;;5008412;28;20484;-67
2022/05/03 21:29:45;;;;;;;22.20;19.80;;;11.40;99.90;;;;;;5008515;28;20553;-68
2022/05/03 21:32:15;;;;;;;22.63;20.10;;;11.40;99.90;;;;;;5009856;28;20844;-68
2022/05/03 21:34:44;;;;;;;29.53;20.80;;;11.30;99.90;;;;;;5009902;28;20951;-67
2022/05/03 21:37:12;;;;;;;26.27;19.50;;;11.30;99.90;;;;;;5010472;28;20475;-67
2022/05/03 21:39:41;;;;;;;28.90;20.37;;;11.30;99.90;;;;;;5008835;28;20960;-67
2022/05/03 21:42:08;;;;;;;22.80;20.30;;;11.20;99.90;;;;;;5009678;28;20465;-67
2022/05/03 21:44:36;;;;;;;24.37;19.80;;;11.20;99.90;;;;;;5009642;28;21029;-68
2022/05/03 21:47:03;;;;;;;30.30;21.03;;;11.10;99.90;;;;;;5010093;28;20492;-67
2022/05/03 21:49:30;;;;;;;38.07;21.17;;;11.10;99.90;;;;;;5009502;28;20459;-67
2022/05/03 21:51:57;;;;;;;26.87;20.17;;;11.10;99.90;;;;;;5009761;28;20469;-67
2022/05/03 21:54:25;;;;;;;20.93;18.60;;;11.10;99.90;;;;;;5007254;28;20480;-67
2022/05/03 21:56:54;;;;;;;27.30;20.13;;;11.00;99.90;;;;;;5009234;28;20563;-68
2022/05/03 21:59:20;;;;;;;27.40;19.30;;;10.90;99.90;;;;;;5009256;28;20566;-67
2022/05/03 22:01:47;;;;;;;31.53;21.60;;;10.90;99.90;;;;;;5008643;28;20978;-68
2022/05/03 22:04:14;;;;;;;23.67;19.50;;;10.80;99.90;;;;;;5008643;28;21015;-67
2022/05/03 22:06:41;;;;;;;30.37;20.40;;;10.80;99.90;;;;;;5009947;28;20999;-68
2022/05/03 22:09:08;;;;;;;22.50;19.90;;;10.80;99.90;;;;;;5009813;28;20483;-68
2022/05/03 22:11:35;;;;;;;30.63;19.17;;;10.70;99.90;;;;;;5010099;28;20456;-68
2022/05/03 22:14:04;;;;;;;20.97;18.73;;;10.70;99.90;;;;;;5008189;28;21225;-67
2022/05/03 22:16:32;;;;;;;27.47;20.07;;;10.60;99.90;;;;;;5009507;28;20845;-67
2022/05/03 22:18:59;;;;;;;23.30;19.10;;;10.60;99.90;;;;;;5009701;28;20471;-67
2022/05/03 22:21:27;;;;;;;21.77;19.53;;;10.60;99.90;;;;;;5009722;28;21461;-68
2022/05/03 22:26:34;;;;;;;20.67;18.47;;;10.50;99.90;;;;;;5011839;28;20457;-67
2022/05/03 22:29:01;;;;;;;18.93;17.13;;;10.40;99.90;;;;;;5009768;28;20468;-67
2022/05/03 22:31:29;;;;;;;26.83;18.50;;;10.40;99.90;;;;;;5009053;28;20482;-67
2022/05/03 22:33:56;;;;;;;27.00;18.53;;;10.40;99.90;;;;;;5008771;28;20488;-67
2022/05/03 22:36:23;;;;;;;21.00;18.13;;;10.40;99.90;;;;;;5008765;28;20605;-67
2022/05/03 22:38:50;;;;;;;28.37;18.83;;;10.30;99.90;;;;;;5009316;28;20825;-68
2022/05/03 22:41:17;;;;;;;23.70;18.90;;;10.40;99.90;;;;;;5009122;28;20801;-67
2022/05/03 22:43:44;;;;;;;23.17;16.60;;;10.40;99.90;;;;;;5008471;28;20558;-67
2022/05/03 22:46:12;;;;;;;20.73;17.20;;;10.40;99.90;;;;;;5008825;28;20802;-67
2022/05/03 22:48:40;;;;;;;20.93;18.70;;;10.30;99.90;;;;;;5008194;28;20524;-68
2022/05/03 22:51:07;;;;;;;20.50;17.90;;;10.20;99.90;;;;;;5008849;28;20460;-68
2022/05/03 22:53:33;;;;;;;22.97;17.43;;;10.20;99.90;;;;;;5008824;28;20984;-67
2022/05/03 22:56:00;;;;;;;21.77;18.17;;;10.20;99.90;;;;;;5008325;28;20484;-68
2022/05/03 22:58:27;;;;;;;25.40;20.40;;;10.20;99.90;;;;;;5008935;28;21003;-68
2022/05/03 23:00:54;;;;;;;21.23;17.70;;;10.20;99.90;;;;;;5015645;28;20452;-68
2022/05/03 23:03:21;;;;;;;23.70;18.60;;;10.20;99.90;;;;;;5031258;28;20467;-67
2022/05/03 23:05:49;;;;;;;21.13;18.90;;;10.10;99.90;;;;;;5033317;28;20495;-68
2022/05/03 23:08:17;;;;;;;26.80;19.03;;;10.20;99.90;;;;;;5041473;28;20502;-68
2022/05/03 23:10:44;;;;;;;22.03;18.20;;;10.00;99.90;;;;;;5031823;28;20471;-68
2022/05/03 23:13:17;;;;;;;20.57;17.37;;;9.90;99.90;;;;;;5036539;28;20469;-68
2022/05/03 23:15:46;;;;;;;19.63;17.33;;;9.80;99.90;;;;;;5031491;28;20467;-68
2022/05/03 23:18:14;;;;;;;23.00;18.13;;;9.80;99.90;;;;;;5031291;28;20478;-68
2022/05/03 23:20:41;;;;;;;23.43;18.80;;;9.70;99.90;;;;;;5036916;28;20475;-68
2022/05/03 23:23:09;;;;;;;25.70;16.73;;;9.70;99.90;;;;;;5027994;28;20475;-68
2022/05/03 23:25:36;;;;;;;21.20;18.27;;;9.60;99.90;;;;;;5036126;28;20459;-68
2022/05/03 23:28:03;;;;;;;25.70;19.17;;;9.50;99.90;;;;;;5030847;28;20485;-68
2022/05/03 23:30:31;;;;;;;22.70;18.50;;;9.50;99.90;;;;;;5031722;28;20459;-67
2022/05/03 23:33:00;;;;;;;20.40;17.60;;;9.50;99.90;;;;;;5031757;28;20463;-68
2022/05/03 23:35:26;;;;;;;19.97;17.50;;;9.40;99.90;;;;;;5031517;28;21143;-68
2022/05/03 23:37:53;;;;;;;25.17;18.00;;;9.40;99.90;;;;;;5032197;28;20732;-68
2022/05/03 23:40:22;;;;;;;20.90;18.23;;;9.40;99.90;;;;;;5038186;28;20464;-68
2022/05/03 23:42:49;;;;;;;19.10;17.37;;;9.40;99.90;;;;;;5032545;28;20834;-68
2022/05/03 23:48:01;;;;;;;21.77;19.13;;;9.30;99.90;;;;;;5034026;28;20494;-68
2022/05/03 23:50:31;;;;;;;20.67;18.07;;;9.30;99.90;;;;;;5036761;28;20454;-68
2022/05/03 23:52:58;;;;;;;22.23;19.87;;;9.30;99.90;;;;;;5031466;28;20467;-68
2022/05/03 23:55:26;;;;;;;26.73;18.83;;;9.30;99.90;;;;;;5035384;28;20821;-68
2022/05/03 23:57:53;;;;;;;25.07;20.30;;;9.30;99.90;;;;;;5027238;28;20471;-68
